createdAt,value
2023-04-01T00:00:56.722Z,95427.19
2023-04-01T00:03:24.044Z,95433.94
2023-04-01T00:05:50.791Z,95420.59
2023-04-01T00:08:17.727Z,95422.94
2023-04-01T00:10:44.103Z,95425.19
2023-04-01T00:13:10.491Z,95435.03
2023-04-01T00:15:37.813Z,95424.16
2023-04-01T00:18:04.640Z,95432.38
2023-04-01T00:20:31.556Z,95426.56
2023-04-01T00:22:58.056Z,95426.75
2023-04-01T00:25:24.738Z,95422.31
2023-04-01T00:27:51.123Z,95422.00
2023-04-01T00:30:18.188Z,95418.91
2023-04-01T00:32:44.791Z,95422.16
2023-04-01T00:35:11.671Z,95423.56
2023-04-01T00:37:40.341Z,95409.47
2023-04-01T00:40:08.696Z,95422.41
2023-04-01T00:42:35.050Z,95408.72
2023-04-01T00:45:27.373Z,95416.13
2023-04-01T00:47:54.317Z,95416.47
2023-04-01T00:50:23.131Z,95421.50
2023-04-01T00:52:49.543Z,95422.09
2023-04-01T00:55:18.915Z,95419.09
2023-04-01T00:57:46.959Z,95424.59
2023-04-01T01:00:16.014Z,95418.00
2023-04-01T01:02:43.917Z,95416.00
2023-04-01T01:05:16.838Z,95409.72
2023-04-01T01:07:55.188Z,95416.66
2023-04-01T01:10:32.847Z,95415.13
2023-04-01T01:13:04.896Z,95411.88
2023-04-01T01:15:40.635Z,95415.13
2023-04-01T01:18:12.699Z,95422.66
2023-04-01T01:21:20.981Z,95411.59
2023-04-01T01:24:10.498Z,95422.38
2023-04-01T01:26:52.189Z,95411.72
2023-04-01T01:29:18.544Z,95412.13
2023-04-01T01:32:02.839Z,95413.94
2023-04-01T01:34:47.901Z,95400.69
2023-04-01T01:37:17.453Z,95394.56
2023-04-01T01:39:48.329Z,95396.16
2023-04-01T01:42:17.912Z,95411.06
2023-04-01T01:44:47.310Z,95396.81
2023-04-01T01:47:15.533Z,95402.31
2023-04-01T01:49:43.449Z,95404.22
2023-04-01T01:52:09.900Z,95392.56
2023-04-01T01:54:36.325Z,95387.31
2023-04-01T01:57:07.988Z,95393.34
2023-04-01T01:59:39.022Z,95392.69
2023-04-01T02:02:09.028Z,95392.75
2023-04-01T02:04:38.218Z,95399.88
2023-04-01T02:07:08.296Z,95387.66
2023-04-01T02:09:35.330Z,95392.03
2023-04-01T02:12:06.544Z,95391.69
2023-04-01T02:14:53.832Z,95390.09
2023-04-01T02:17:23.095Z,95409.91
2023-04-01T02:20:05.336Z,95400.72
2023-04-01T02:22:37.483Z,95397.56
2023-04-01T02:25:08.380Z,95401.47
2023-04-01T02:27:35.090Z,95409.66
2023-04-01T02:30:01.796Z,95399.09
2023-04-01T02:32:30.538Z,95394.09
2023-04-01T02:34:57.536Z,95399.19
2023-04-01T02:37:24.197Z,95397.19
2023-04-01T02:39:50.549Z,95395.34
2023-04-01T02:42:16.917Z,95389.19
2023-04-01T02:44:43.340Z,95402.78
2023-04-01T02:47:09.767Z,95393.00
2023-04-01T02:49:36.242Z,95382.47
2023-04-01T02:52:02.590Z,95394.13
2023-04-01T02:54:28.937Z,95387.22
2023-04-01T02:56:55.365Z,95393.25
2023-04-01T02:59:21.731Z,95392.81
2023-04-01T03:01:48.096Z,95400.50
2023-04-01T03:04:14.472Z,95392.56
2023-04-01T03:06:40.865Z,95387.53
2023-04-01T03:09:07.238Z,95397.59
2023-04-01T03:11:33.659Z,95387.19
2023-04-01T03:14:00.298Z,95391.78
2023-04-01T03:16:26.714Z,95385.84
2023-04-01T03:18:54.220Z,95394.78
2023-04-01T03:21:23.239Z,95398.13
2023-04-01T03:23:49.779Z,95399.13
2023-04-01T03:26:16.707Z,95385.91
2023-04-01T03:28:43.814Z,95376.91
2023-04-01T03:31:10.354Z,95384.59
2023-04-01T03:33:36.825Z,95393.09
2023-04-01T03:36:07.135Z,95382.22
2023-04-01T03:38:35.358Z,95391.50
2023-04-01T03:41:02.159Z,95384.41
2023-04-01T03:43:28.540Z,95390.00
2023-04-01T03:45:55.776Z,95387.19
2023-04-01T03:48:22.238Z,95401.22
2023-04-01T03:50:49.368Z,95397.31
2023-04-01T03:53:16.279Z,95395.78
2023-04-01T03:55:42.655Z,95391.63
2023-04-01T03:58:11.143Z,95394.28
2023-04-01T04:00:37.503Z,95384.81
2023-04-01T04:03:04.323Z,95384.63
2023-04-01T04:05:30.965Z,95371.06
2023-04-01T04:07:57.437Z,95375.69
2023-04-01T04:10:24.281Z,95378.50
2023-04-01T04:12:50.832Z,95380.75
2023-04-01T04:15:17.318Z,95390.00
2023-04-01T04:17:45.821Z,95386.97
2023-04-01T04:20:12.447Z,95393.34
2023-04-01T04:22:38.831Z,95387.22
2023-04-01T04:25:05.707Z,95404.03
2023-04-01T04:27:32.076Z,95395.50
2023-04-01T04:29:58.442Z,95377.44
2023-04-01T04:32:24.817Z,95396.69
2023-04-01T04:34:51.167Z,95389.81
2023-04-01T04:37:17.523Z,95397.03
2023-04-01T04:39:43.969Z,95386.22
2023-04-01T04:42:10.336Z,95386.16
2023-04-01T04:44:36.691Z,95390.75
2023-04-01T04:47:03.436Z,95396.41
2023-04-01T04:49:29.901Z,95402.09
2023-04-01T04:51:56.319Z,95399.84
2023-04-01T04:54:22.700Z,95396.56
2023-04-01T04:56:49.163Z,95403.69
2023-04-01T04:59:15.576Z,95401.44
2023-04-01T05:01:42.277Z,95385.50
2023-04-01T05:04:08.654Z,95395.00
2023-04-01T05:06:35.031Z,95404.34
2023-04-01T05:09:01.397Z,95396.75
2023-04-01T05:11:28.237Z,95387.97
2023-04-01T05:13:54.635Z,95398.75
2023-04-01T05:16:21.427Z,95399.84
2023-04-01T05:18:48.619Z,95394.56
2023-04-01T05:21:15.892Z,95389.72
2023-04-01T05:23:43.109Z,95386.69
2023-04-01T05:26:12.960Z,95382.94
2023-04-01T05:28:40.205Z,95389.09
2023-04-01T05:31:07.395Z,95391.56
2023-04-01T05:33:33.896Z,95390.88
2023-04-01T05:36:08.185Z,95395.75
2023-04-01T05:38:34.603Z,95398.84
2023-04-01T05:41:03.076Z,95392.50
2023-04-01T05:43:30.681Z,95394.44
2023-04-01T05:45:58.123Z,95374.84
2023-04-01T05:48:24.592Z,95395.94
2023-04-01T05:50:50.984Z,95381.63
2023-04-01T05:53:17.398Z,95383.03
2023-04-01T05:55:43.928Z,95386.34
2023-04-01T05:58:10.310Z,95380.09
2023-04-01T06:00:36.843Z,95394.09
2023-04-01T06:03:03.475Z,95388.41
2023-04-01T06:05:37.023Z,95389.34
2023-04-01T06:08:11.154Z,95379.44
2023-04-01T06:11:17.881Z,95383.31
2023-04-01T06:13:50.809Z,95395.63
2023-04-01T06:16:43.709Z,95392.50
2023-04-01T06:19:26.431Z,95394.88
2023-04-01T06:22:18.821Z,95396.28
2023-04-01T06:25:13.300Z,95401.34
2023-04-01T06:27:42.850Z,95402.75
2023-04-01T06:30:25.579Z,95402.66
2023-04-01T06:32:57.891Z,95404.56
2023-04-01T06:35:37.045Z,95397.41
2023-04-01T06:38:12.730Z,95404.50
2023-04-01T06:41:02.351Z,95405.63
2023-04-01T06:43:49.761Z,95402.56
2023-04-01T06:46:36.516Z,95413.56
2023-04-01T06:49:30.755Z,95400.56
2023-04-01T06:52:18.512Z,95400.75
2023-04-01T06:54:50.259Z,95394.53
2023-04-01T06:57:34.880Z,95400.47
2023-04-01T07:00:04.570Z,95388.59
2023-04-01T07:02:46.330Z,95390.09
2023-04-01T07:05:15.921Z,95388.94
2023-04-01T07:07:55.320Z,95399.91
2023-04-01T07:10:32.298Z,95395.63
2023-04-01T07:13:05.038Z,95397.00
2023-04-01T07:15:42.132Z,95399.53
2023-04-01T07:18:17.497Z,95404.28
2023-04-01T07:20:44.098Z,95392.53
2023-04-01T07:23:23.891Z,95392.50
2023-04-01T07:25:56.407Z,95392.78
2023-04-01T07:28:23.200Z,95399.31
2023-04-01T07:31:14.563Z,95411.84
2023-04-01T07:33:50.735Z,95398.28
2023-04-01T07:36:45.823Z,95411.75
2023-04-01T07:39:37.311Z,95417.19
2023-04-01T07:42:15.844Z,95407.31
2023-04-01T07:44:51.530Z,95418.09
2023-04-01T07:47:27.154Z,95435.16
2023-04-01T07:50:14.861Z,95428.69
2023-04-01T07:53:00.221Z,95425.19
2023-04-01T07:55:52.134Z,95427.56
2023-04-01T07:58:44.753Z,95431.69
2023-04-01T08:02:00.266Z,95429.03
2023-04-01T08:04:57.409Z,95442.38
2023-04-01T08:07:27.466Z,95450.38
2023-04-01T08:10:23.975Z,95439.63
2023-04-01T08:13:04.559Z,95439.09
2023-04-01T08:15:49.284Z,95451.38
2023-04-01T08:18:15.583Z,95450.63
2023-04-01T08:20:54.036Z,95452.03
2023-04-01T08:23:26.704Z,95445.91
2023-04-01T08:26:04.487Z,95465.63
2023-04-01T08:28:41.610Z,95455.22
2023-04-01T08:31:15.747Z,95456.69
2023-04-01T08:33:45.233Z,95456.88
2023-04-01T08:36:14.255Z,95454.03
2023-04-01T08:39:11.636Z,95462.34
2023-04-01T08:41:49.966Z,95465.81
2023-04-01T08:45:01.072Z,95458.69
2023-04-01T08:47:36.583Z,95473.44
2023-04-01T08:50:25.274Z,95461.38
2023-04-01T08:53:10.089Z,95476.16
2023-04-01T08:55:42.519Z,95463.84
2023-04-01T08:58:30.708Z,95465.69
2023-04-01T09:01:06.513Z,95467.09
2023-04-01T09:03:35.879Z,95471.94
2023-04-01T09:06:25.322Z,95474.53
2023-04-01T09:09:00.567Z,95480.97
2023-04-01T09:11:42.177Z,95482.41
2023-04-01T09:14:27.215Z,95461.69
2023-04-01T09:17:10.697Z,95475.16
2023-04-01T09:20:08.064Z,95481.94
2023-04-01T09:22:53.133Z,95484.19
2023-04-01T09:25:35.750Z,95489.69
2023-04-01T09:28:18.239Z,95482.88
2023-04-01T09:31:11.311Z,95490.44
2023-04-01T09:34:08.475Z,95485.91
2023-04-01T09:36:37.721Z,95488.78
2023-04-01T09:39:35.398Z,95494.28
2023-04-01T09:42:01.676Z,95496.63
2023-04-01T09:44:36.470Z,95492.66
2023-04-01T09:47:21.670Z,95501.81
2023-04-01T09:50:06.394Z,95497.50
2023-04-01T09:52:53.047Z,95497.97
2023-04-01T09:55:50.914Z,95503.88
2023-04-01T09:58:43.743Z,95509.38
2023-04-01T10:01:34.089Z,95512.41
2023-04-01T10:04:37.502Z,95508.63
2023-04-01T10:07:32.704Z,95502.34
2023-04-01T10:10:27.041Z,95516.34
2023-04-01T10:13:11.747Z,95514.19
2023-04-01T10:15:46.711Z,95524.31
2023-04-01T10:18:31.760Z,95524.22
2023-04-01T10:21:04.240Z,95528.66
2023-04-01T10:23:49.000Z,95526.88
2023-04-01T10:26:41.539Z,95531.28
2023-04-01T10:29:20.683Z,95527.75
2023-04-01T10:32:17.597Z,95519.88
2023-04-01T10:35:00.268Z,95513.00
2023-04-01T10:37:56.630Z,95531.88
2023-04-01T10:40:44.699Z,95527.00
2023-04-01T10:43:32.882Z,95530.69
2023-04-01T10:46:24.295Z,95534.34
2023-04-01T10:49:15.563Z,95528.81
2023-04-01T10:52:12.951Z,95525.16
2023-04-01T10:55:08.439Z,95522.75
2023-04-01T10:58:11.901Z,95519.75
2023-04-01T11:01:06.314Z,95521.78
2023-04-01T11:04:02.681Z,95507.47
2023-04-01T11:06:47.024Z,95517.13
2023-04-01T11:09:41.442Z,95515.09
2023-04-01T11:12:53.085Z,95515.09
2023-04-01T11:15:49.292Z,95523.66
2023-04-01T11:18:21.479Z,95526.09
2023-04-01T11:20:53.811Z,95539.81
2023-04-01T11:23:25.954Z,95532.09
2023-04-01T11:26:04.804Z,95531.69
2023-04-01T11:29:10.463Z,95529.75
2023-04-01T11:32:00.428Z,95543.63
2023-04-01T11:34:50.065Z,95533.75
2023-04-01T11:37:32.945Z,95543.56
2023-04-01T11:40:30.047Z,95547.59
2023-04-01T11:43:34.862Z,95551.09
2023-04-01T11:46:20.145Z,95542.31
2023-04-01T11:49:22.299Z,95549.59
2023-04-01T11:52:06.957Z,95551.50
2023-04-01T11:55:03.385Z,95546.22
2023-04-01T11:58:13.181Z,95566.41
2023-04-01T12:01:09.615Z,95558.03
2023-04-01T12:03:54.877Z,95573.34
2023-04-01T12:06:53.246Z,95566.66
2023-04-01T12:09:48.105Z,95559.13
2023-04-01T12:12:38.227Z,95565.50
2023-04-01T12:15:38.331Z,95579.56
2023-04-01T12:18:39.548Z,95583.25
2023-04-01T12:21:28.228Z,95567.31
2023-04-01T12:24:16.001Z,95591.59
2023-04-01T12:27:08.041Z,95591.44
2023-04-01T12:30:11.394Z,95591.00
2023-04-01T12:32:56.863Z,95589.00
2023-04-01T12:35:56.172Z,95593.13
2023-04-01T12:38:36.935Z,95599.41
2023-04-01T12:41:21.678Z,95589.25
2023-04-01T12:44:27.542Z,95591.69
2023-04-01T12:46:59.703Z,95596.38
2023-04-01T12:50:20.914Z,95594.28
2023-04-01T12:53:04.139Z,95585.59
2023-04-01T12:55:33.398Z,95592.09
2023-04-01T12:58:13.363Z,95594.13
2023-04-01T13:01:10.156Z,95607.50
2023-04-01T13:03:45.637Z,95591.44
2023-04-01T13:06:16.038Z,95612.06
2023-04-01T13:09:21.260Z,95607.53
2023-04-01T13:12:12.699Z,95608.94
2023-04-01T13:15:08.827Z,95603.91
2023-04-01T13:17:44.152Z,95615.31
2023-04-01T13:20:10.642Z,95624.31
2023-04-01T13:22:52.218Z,95621.56
2023-04-01T13:25:41.028Z,95624.50
2023-04-01T13:28:15.208Z,95615.22
2023-04-01T13:30:57.238Z,95618.06
2023-04-01T13:34:01.169Z,95620.91
2023-04-01T13:37:09.602Z,95625.00
2023-04-01T13:39:48.415Z,95633.00
2023-04-01T13:42:34.214Z,95630.50
2023-04-01T13:45:14.943Z,95624.16
2023-04-01T13:47:58.667Z,95631.50
2023-04-01T13:50:35.422Z,95629.09
2023-04-01T13:53:17.060Z,95631.84
2023-04-01T13:56:08.757Z,95629.78
2023-04-01T13:58:56.458Z,95623.91
2023-04-01T14:01:59.866Z,95638.63
2023-04-01T14:04:44.519Z,95637.88
2023-04-01T14:07:56.666Z,95640.22
2023-04-01T14:10:42.542Z,95635.97
2023-04-01T14:13:36.488Z,95640.66
2023-04-01T14:16:12.056Z,95645.78
2023-04-01T14:18:54.952Z,95648.09
2023-04-01T14:21:30.252Z,95648.75
2023-04-01T14:24:13.580Z,95651.69
2023-04-01T14:26:54.131Z,95639.69
2023-04-01T14:29:49.671Z,95662.63
2023-04-01T14:32:47.643Z,95670.22
2023-04-01T14:35:27.963Z,95654.28
2023-04-01T14:38:15.696Z,95666.03
2023-04-01T14:40:53.266Z,95667.03
2023-04-01T14:43:47.791Z,95672.16
2023-04-01T14:46:18.072Z,95639.22
2023-04-01T14:48:58.341Z,95673.38
2023-04-01T14:51:33.245Z,95655.38
2023-04-01T14:54:11.466Z,95677.06
2023-04-01T14:56:49.047Z,95675.50
2023-04-01T14:59:28.925Z,95663.94
2023-04-01T15:02:15.746Z,95681.88
2023-04-01T15:04:56.359Z,95680.28
2023-04-01T15:07:40.518Z,95681.88
2023-04-01T15:10:27.889Z,95692.94
2023-04-01T15:13:11.864Z,95687.56
2023-04-01T15:16:00.256Z,95694.22
2023-04-01T15:19:04.427Z,95698.22
2023-04-01T15:21:58.164Z,95694.22
2023-04-01T15:24:46.976Z,95697.28
2023-04-01T15:27:27.598Z,95703.78
2023-04-01T15:30:15.384Z,95705.88
2023-04-01T15:33:09.003Z,95702.94
2023-04-01T15:36:05.941Z,95707.16
2023-04-01T15:38:53.942Z,95729.72
2023-04-01T15:41:39.887Z,95724.56
2023-04-01T15:44:39.204Z,95723.78
2023-04-01T15:47:25.050Z,95718.75
2023-04-01T15:50:03.488Z,95727.47
2023-04-01T15:53:03.982Z,95735.78
2023-04-01T15:55:58.191Z,95734.38
2023-04-01T15:58:46.406Z,95729.84
2023-04-01T16:01:50.354Z,95738.50
2023-04-01T16:04:28.437Z,95724.47
2023-04-01T16:07:31.226Z,95743.34
2023-04-01T16:10:10.070Z,95744.53
2023-04-01T16:12:54.024Z,95749.63
2023-04-01T16:15:36.089Z,95746.50
2023-04-01T16:18:15.779Z,95751.03
2023-04-01T16:21:07.947Z,95740.56
2023-04-01T16:23:44.386Z,95740.78
2023-04-01T16:26:28.797Z,95757.94
2023-04-01T16:29:03.863Z,95758.94
2023-04-01T16:31:44.893Z,95753.44
2023-04-01T16:34:36.917Z,95769.72
2023-04-01T16:37:21.923Z,95766.91
2023-04-01T16:40:10.264Z,95771.78
2023-04-01T16:42:52.610Z,95777.41
2023-04-01T16:45:44.214Z,95778.03
2023-04-01T16:48:14.409Z,95763.63
2023-04-01T16:50:49.733Z,95786.03
2023-04-01T16:53:31.692Z,95789.13
2023-04-01T16:56:17.703Z,95800.25
2023-04-01T16:58:56.617Z,95796.47
2023-04-01T17:01:28.275Z,95794.06
2023-04-01T17:04:05.525Z,95804.38
2023-04-01T17:07:37.757Z,95809.22
2023-04-01T17:10:07.077Z,95813.97
2023-04-01T17:13:01.527Z,95802.59
2023-04-01T17:15:33.902Z,95818.41
2023-04-01T17:18:15.917Z,95813.59
2023-04-01T17:21:02.154Z,95832.81
2023-04-01T17:23:39.437Z,95834.28
2023-04-01T17:26:11.582Z,95837.56
2023-04-01T17:28:48.144Z,95836.16
2023-04-01T17:31:21.494Z,95835.25
2023-04-01T17:34:14.022Z,95842.19
2023-04-01T17:36:53.551Z,95841.31
2023-04-01T17:39:41.438Z,95851.59
2023-04-01T17:42:15.024Z,95852.88
2023-04-01T17:45:00.917Z,95847.69
2023-04-01T17:47:38.468Z,95852.44
2023-04-01T17:50:23.784Z,95859.56
2023-04-01T17:53:34.345Z,95864.44
2023-04-01T17:56:09.740Z,95863.88
2023-04-01T17:58:45.178Z,95877.69
2023-04-01T18:01:41.011Z,95877.59
2023-04-01T18:04:25.512Z,95879.28
2023-04-01T18:07:13.326Z,95880.38
2023-04-01T18:10:05.762Z,95889.22
2023-04-01T18:12:37.966Z,95880.13
2023-04-01T18:15:28.534Z,95897.31
2023-04-01T18:18:37.249Z,95896.19
2023-04-01T18:21:18.713Z,95900.16
2023-04-01T18:24:02.762Z,95903.50
2023-04-01T18:26:33.284Z,95903.56
2023-04-01T18:29:12.082Z,95900.19
2023-04-01T18:31:46.849Z,95911.06
2023-04-01T18:34:31.679Z,95920.56
2023-04-01T18:37:17.300Z,95922.72
2023-04-01T18:39:51.516Z,95911.97
2023-04-01T18:42:25.914Z,95924.28
2023-04-01T18:45:04.720Z,95921.75
2023-04-01T18:47:51.497Z,95933.44
2023-04-01T18:50:53.758Z,95935.03
2023-04-01T18:53:29.956Z,95928.25
2023-04-01T18:56:00.217Z,95926.94
2023-04-01T18:58:29.281Z,95941.38
2023-04-01T19:01:29.167Z,95954.75
2023-04-01T19:03:58.396Z,95954.03
2023-04-01T19:06:52.729Z,95968.69
2023-04-01T19:09:22.729Z,95971.56
2023-04-01T19:12:20.158Z,95971.13
2023-04-01T19:15:24.565Z,95977.69
2023-04-01T19:18:09.613Z,95981.22
2023-04-01T19:20:46.150Z,95979.38
2023-04-01T19:23:21.514Z,95977.41
2023-04-01T19:25:55.913Z,95970.59
2023-04-01T19:28:41.394Z,95980.31
2023-04-01T19:31:34.807Z,95977.16
2023-04-01T19:34:18.830Z,95994.38
2023-04-01T19:36:52.462Z,95997.25
2023-04-01T19:39:38.348Z,95994.53
2023-04-01T19:42:23.452Z,95998.63
2023-04-01T19:45:10.277Z,95998.03
2023-04-01T19:48:07.027Z,96015.78
2023-04-01T19:50:45.327Z,96019.91
2023-04-01T19:53:23.816Z,96018.38
2023-04-01T19:56:06.374Z,96020.81
2023-04-01T19:58:56.055Z,96030.50
2023-04-01T20:01:44.720Z,96034.94
2023-04-01T20:04:15.894Z,96017.94
2023-04-01T20:06:49.338Z,96034.63
2023-04-01T20:09:42.665Z,96044.78
2023-04-01T20:12:17.829Z,96049.97
2023-04-01T20:14:48.532Z,96053.00
2023-04-01T20:17:45.937Z,96041.63
2023-04-01T20:20:12.242Z,96061.22
2023-04-01T20:23:04.506Z,96068.38
2023-04-01T20:25:31.195Z,96074.91
2023-04-01T20:28:04.984Z,96066.25
2023-04-01T20:30:37.466Z,96066.88
2023-04-01T20:33:22.657Z,96081.16
2023-04-01T20:36:30.385Z,96075.41
2023-04-01T20:39:12.354Z,96089.69
2023-04-01T20:41:57.108Z,96087.09
2023-04-01T20:44:48.346Z,96088.91
2023-04-01T20:47:43.726Z,96088.00
2023-04-01T20:50:34.849Z,96100.75
2023-04-01T20:53:16.974Z,96097.44
2023-04-01T20:56:15.723Z,96100.63
2023-04-01T20:58:58.700Z,96107.63
2023-04-01T21:01:53.010Z,96101.25
2023-04-01T21:05:02.253Z,96097.13
2023-04-01T21:07:47.112Z,96099.41
2023-04-01T21:10:35.975Z,96100.03
2023-04-01T21:13:36.143Z,96107.19
2023-04-01T21:16:36.353Z,96115.22
2023-04-01T21:19:26.742Z,96120.84
2023-04-01T21:22:14.690Z,96112.38
2023-04-01T21:25:07.980Z,96127.28
2023-04-01T21:27:49.823Z,96123.00
2023-04-01T21:30:58.981Z,96124.81
2023-04-01T21:33:42.267Z,96134.41
2023-04-01T21:36:39.828Z,96120.75
2023-04-01T21:39:24.919Z,96137.31
2023-04-01T21:42:23.869Z,96141.88
2023-04-01T21:45:04.427Z,96146.00
2023-04-01T21:47:53.486Z,96145.69
2023-04-01T21:50:40.682Z,96136.44
2023-04-01T21:53:50.860Z,96147.19
2023-04-01T21:57:04.817Z,96151.63
2023-04-01T21:59:41.391Z,96145.06
2023-04-01T22:02:29.335Z,96159.69
2023-04-01T22:05:16.941Z,96155.59
2023-04-01T22:08:01.828Z,96163.94
2023-04-01T22:10:49.885Z,96171.38
2023-04-01T22:13:29.006Z,96162.91
2023-04-01T22:16:19.843Z,96164.72
2023-04-01T22:19:05.251Z,96162.91
2023-04-01T22:22:19.482Z,96177.94
2023-04-01T22:24:55.405Z,96187.38
2023-04-01T22:27:44.758Z,96191.50
2023-04-01T22:30:37.280Z,96187.38
2023-04-01T22:33:17.560Z,96181.88
2023-04-01T22:36:01.762Z,96195.59
2023-04-01T22:38:55.903Z,96188.28
2023-04-01T22:42:00.107Z,96193.94
2023-04-01T22:44:47.480Z,96203.34
2023-04-01T22:47:52.448Z,96202.91
2023-04-01T22:50:19.557Z,96201.38
2023-04-01T22:52:56.421Z,96203.06
2023-04-01T22:55:31.157Z,96194.84
2023-04-01T22:58:13.719Z,96213.09
2023-04-01T23:00:48.557Z,96210.22
2023-04-01T23:03:37.128Z,96223.75
2023-04-01T23:06:05.434Z,96210.66
2023-04-01T23:08:48.686Z,96217.50
2023-04-01T23:11:19.170Z,96203.50
2023-04-01T23:13:53.557Z,96210.66
2023-04-01T23:16:29.803Z,96209.91
2023-04-01T23:19:29.338Z,96220.72
2023-04-01T23:22:10.242Z,96218.56
2023-04-01T23:24:51.823Z,96224.81
2023-04-01T23:27:31.585Z,96234.22
2023-04-01T23:29:57.980Z,96228.59
2023-04-01T23:32:29.019Z,96221.59
2023-04-01T23:34:58.885Z,96237.28
2023-04-01T23:37:27.076Z,96235.75
2023-04-01T23:39:56.764Z,96248.22
2023-04-01T23:42:26.910Z,96252.31
2023-04-01T23:44:58.931Z,96242.13
2023-04-01T23:47:30.072Z,96249.72
2023-04-01T23:50:03.808Z,96256.88
2023-04-01T23:52:35.834Z,96265.41
2023-04-01T23:55:25.314Z,96268.75
2023-04-01T23:58:03.177Z,96276.50
